sensor_id;sensor_type;location;lat;lon;timestamp;pressure;altitude;pressure_sealevel;temperature;humidity
61128;BME280;47013;42.664;23.242;2023-02-19T00:01:36;94286.34;;;6.65;60.29
61128;BME280;47013;42.664;23.242;2023-02-19T00:04:10;94295.63;;;6.68;60.71
61128;BME280;47013;42.664;23.242;2023-02-19T00:06:37;94297.13;;;6.65;60.64
61128;BME280;47013;42.664;23.242;2023-02-19T00:09:03;94296.75;;;6.67;60.70
61128;BME280;47013;42.664;23.242;2023-02-19T00:11:30;94296.72;;;6.63;60.60
61128;BME280;47013;42.664;23.242;2023-02-19T00:13:57;94289.34;;;6.57;60.68
61128;BME280;47013;42.664;23.242;2023-02-19T00:16:28;94282.75;;;6.50;61.41
61128;BME280;47013;42.664;23.242;2023-02-19T00:18:55;94281.16;;;6.46;61.33
61128;BME280;47013;42.664;23.242;2023-02-19T00:21:22;94277.31;;;6.47;61.75
61128;BME280;47013;42.664;23.242;2023-02-19T00:23:59;94272.72;;;6.47;61.75
61128;BME280;47013;42.664;23.242;2023-02-19T00:26:25;94262.72;;;6.48;61.44
61128;BME280;47013;42.664;23.242;2023-02-19T00:28:52;94260.78;;;6.48;61.54
61128;BME280;47013;42.664;23.242;2023-02-19T00:31:26;94258.50;;;6.50;61.45
61128;BME280;47013;42.664;23.242;2023-02-19T00:33:57;94253.09;;;6.47;61.58
61128;BME280;47013;42.664;23.242;2023-02-19T00:36:23;94250.34;;;6.40;61.70
61128;BME280;47013;42.664;23.242;2023-02-19T00:38:49;94251.03;;;6.33;62.72
61128;BME280;47013;42.664;23.242;2023-02-19T00:41:15;94253.25;;;6.24;62.94
61128;BME280;47013;42.664;23.242;2023-02-19T00:43:45;94256.34;;;6.26;62.75
61128;BME280;47013;42.664;23.242;2023-02-19T00:46:10;94258.78;;;6.01;63.56
61128;BME280;47013;42.664;23.242;2023-02-19T00:48:35;94248.09;;;6.08;63.72
61128;BME280;47013;42.664;23.242;2023-02-19T00:51:01;94248.75;;;5.98;64.22
61128;BME280;47013;42.664;23.242;2023-02-19T00:53:26;94245.28;;;5.98;63.72
61128;BME280;47013;42.664;23.242;2023-02-19T00:55:51;94244.94;;;5.99;63.89
61128;BME280;47013;42.664;23.242;2023-02-19T00:58:17;94233.81;;;6.04;63.97
61128;BME280;47013;42.664;23.242;2023-02-19T01:00:42;94229.91;;;5.98;64.22
61128;BME280;47013;42.664;23.242;2023-02-19T01:03:08;94222.25;;;6.00;63.51
61128;BME280;47013;42.664;23.242;2023-02-19T01:05:33;94219.63;;;6.07;63.36
61128;BME280;47013;42.664;23.242;2023-02-19T01:07:58;94208.56;;;6.16;61.80
61128;BME280;47013;42.664;23.242;2023-02-19T01:10:24;94198.34;;;6.36;61.80
61128;BME280;47013;42.664;23.242;2023-02-19T01:12:49;94204.41;;;6.73;59.54
61128;BME280;47013;42.664;23.242;2023-02-19T01:15:14;94198.56;;;7.19;58.70
61128;BME280;47013;42.664;23.242;2023-02-19T01:17:40;94212.56;;;7.43;57.88
61128;BME280;47013;42.664;23.242;2023-02-19T01:20:05;94228.22;;;7.19;58.75
61128;BME280;47013;42.664;23.242;2023-02-19T01:22:31;94223.16;;;7.07;59.02
61128;BME280;47013;42.664;23.242;2023-02-19T01:24:56;94230.00;;;6.97;59.33
61128;BME280;47013;42.664;23.242;2023-02-19T01:27:21;94227.59;;;6.85;59.79
61128;BME280;47013;42.664;23.242;2023-02-19T01:29:47;94246.91;;;6.91;59.88
61128;BME280;47013;42.664;23.242;2023-02-19T01:32:12;94254.75;;;6.62;61.06
61128;BME280;47013;42.664;23.242;2023-02-19T01:34:37;94245.41;;;6.49;61.73
61128;BME280;47013;42.664;23.242;2023-02-19T01:37:03;94264.25;;;6.49;61.84
61128;BME280;47013;42.664;23.242;2023-02-19T01:39:28;94268.09;;;6.48;61.80
61128;BME280;47013;42.664;23.242;2023-02-19T01:41:55;94278.50;;;6.49;61.68
61128;BME280;47013;42.664;23.242;2023-02-19T01:46:45;94294.22;;;6.44;62.05
61128;BME280;47013;42.664;23.242;2023-02-19T01:49:17;94277.41;;;6.54;61.63
61128;BME280;47013;42.664;23.242;2023-02-19T01:51:51;94291.56;;;6.47;62.04
61128;BME280;47013;42.664;23.242;2023-02-19T01:54:19;94293.88;;;6.49;61.82
61128;BME280;47013;42.664;23.242;2023-02-19T01:56:48;94279.50;;;6.34;61.73
61128;BME280;47013;42.664;23.242;2023-02-19T01:59:15;94279.06;;;6.29;62.07
61128;BME280;47013;42.664;23.242;2023-02-19T02:01:41;94272.25;;;6.01;62.55
61128;BME280;47013;42.664;23.242;2023-02-19T02:04:08;94265.75;;;6.06;62.61
61128;BME280;47013;42.664;23.242;2023-02-19T02:06:55;94260.97;;;6.66;58.45
61128;BME280;47013;42.664;23.242;2023-02-19T02:09:25;94259.94;;;7.40;55.42
61128;BME280;47013;42.664;23.242;2023-02-19T02:12:09;94255.16;;;7.88;53.22
61128;BME280;47013;42.664;23.242;2023-02-19T02:14:36;94248.81;;;8.61;50.33
61128;BME280;47013;42.664;23.242;2023-02-19T02:17:19;94247.66;;;8.94;49.35
61128;BME280;47013;42.664;23.242;2023-02-19T02:23:02;94252.16;;;9.82;46.32
61128;BME280;47013;42.664;23.242;2023-02-19T02:31:27;94250.91;;;10.04;45.24
61128;BME280;47013;42.664;23.242;2023-02-19T02:34:06;94266.00;;;10.05;45.18
61128;BME280;47013;42.664;23.242;2023-02-19T02:36:40;94262.13;;;10.03;44.93
61128;BME280;47013;42.664;23.242;2023-02-19T02:39:10;94282.75;;;9.65;47.48
61128;BME280;47013;42.664;23.242;2023-02-19T02:41:42;94277.03;;;8.74;50.59
61128;BME280;47013;42.664;23.242;2023-02-19T02:44:08;94280.84;;;8.51;50.94
61128;BME280;47013;42.664;23.242;2023-02-19T02:46:34;94286.19;;;8.34;52.67
61128;BME280;47013;42.664;23.242;2023-02-19T02:49:04;94286.50;;;8.11;53.71
61128;BME280;47013;42.664;23.242;2023-02-19T02:51:43;94292.53;;;7.79;54.79
61128;BME280;47013;42.664;23.242;2023-02-19T02:57:00;94283.56;;;7.61;55.47
61128;BME280;47013;42.664;23.242;2023-02-19T02:59:29;94275.84;;;7.56;55.68
61128;BME280;47013;42.664;23.242;2023-02-19T03:02:25;94286.19;;;7.47;54.48
61128;BME280;47013;42.664;23.242;2023-02-19T03:04:54;94286.06;;;7.94;52.05
61128;BME280;47013;42.664;23.242;2023-02-19T03:10:31;94280.13;;;8.76;48.70
61128;BME280;47013;42.664;23.242;2023-02-19T03:13:01;94278.19;;;8.91;48.52
61128;BME280;47013;42.664;23.242;2023-02-19T03:16:00;94283.97;;;9.07;47.60
61128;BME280;47013;42.664;23.242;2023-02-19T03:18:48;94287.84;;;9.16;47.48
61128;BME280;47013;42.664;23.242;2023-02-19T03:21:35;94280.09;;;9.22;47.40
61128;BME280;47013;42.664;23.242;2023-02-19T03:24:03;94287.06;;;9.34;46.91
61128;BME280;47013;42.664;23.242;2023-02-19T03:26:50;94290.13;;;9.36;46.42
61128;BME280;47013;42.664;23.242;2023-02-19T03:29:20;94293.63;;;9.51;46.05
61128;BME280;47013;42.664;23.242;2023-02-19T03:31:48;94318.69;;;9.72;45.35
61128;BME280;47013;42.664;23.242;2023-02-19T03:34:19;94312.13;;;9.70;45.03
61128;BME280;47013;42.664;23.242;2023-02-19T03:36:55;94321.78;;;9.74;45.41
61128;BME280;47013;42.664;23.242;2023-02-19T03:39:23;94318.28;;;9.92;44.78
61128;BME280;47013;42.664;23.242;2023-02-19T03:42:00;94326.75;;;10.01;44.64
61128;BME280;47013;42.664;23.242;2023-02-19T03:49:48;94327.16;;;9.89;44.58
61128;BME280;47013;42.664;23.242;2023-02-19T03:52:21;94320.63;;;9.90;44.56
61128;BME280;47013;42.664;23.242;2023-02-19T03:54:58;94326.78;;;9.94;44.24
61128;BME280;47013;42.664;23.242;2023-02-19T03:57:36;94324.81;;;10.01;44.75
61128;BME280;47013;42.664;23.242;2023-02-19T04:00:12;94322.53;;;9.93;44.13
61128;BME280;47013;42.664;23.242;2023-02-19T04:05:36;94333.69;;;10.13;44.57
61128;BME280;47013;42.664;23.242;2023-02-19T04:08:12;94336.00;;;10.14;44.24
61128;BME280;47013;42.664;23.242;2023-02-19T04:10:38;94346.06;;;10.21;43.77
61128;BME280;47013;42.664;23.242;2023-02-19T04:13:14;94339.13;;;10.16;43.96
61128;BME280;47013;42.664;23.242;2023-02-19T04:15:41;94343.75;;;10.16;44.04
61128;BME280;47013;42.664;23.242;2023-02-19T04:18:13;94341.84;;;10.05;43.92
61128;BME280;47013;42.664;23.242;2023-02-19T04:20:43;94346.84;;;10.14;44.21
61128;BME280;47013;42.664;23.242;2023-02-19T04:23:10;94346.47;;;10.12;43.86
61128;BME280;47013;42.664;23.242;2023-02-19T04:25:38;94362.34;;;10.17;44.15
61128;BME280;47013;42.664;23.242;2023-02-19T04:28:06;94356.50;;;10.15;44.29
61128;BME280;47013;42.664;23.242;2023-02-19T04:30:32;94358.06;;;10.20;43.91
61128;BME280;47013;42.664;23.242;2023-02-19T04:32:57;94347.63;;;10.22;43.52
61128;BME280;47013;42.664;23.242;2023-02-19T04:35:23;94351.47;;;10.21;43.82
61128;BME280;47013;42.664;23.242;2023-02-19T04:37:48;94343.75;;;10.19;43.90
61128;BME280;47013;42.664;23.242;2023-02-19T04:40:13;94363.88;;;10.22;44.01
61128;BME280;47013;42.664;23.242;2023-02-19T04:42:39;94355.34;;;10.20;44.81
61128;BME280;47013;42.664;23.242;2023-02-19T04:45:04;94365.41;;;10.26;44.90
61128;BME280;47013;42.664;23.242;2023-02-19T04:47:31;94363.88;;;10.29;45.03
61128;BME280;47013;42.664;23.242;2023-02-19T04:49:56;94361.16;;;10.29;44.87
61128;BME280;47013;42.664;23.242;2023-02-19T04:52:22;94364.25;;;10.24;44.83
61128;BME280;47013;42.664;23.242;2023-02-19T04:54:47;94375.09;;;10.31;44.49
61128;BME280;47013;42.664;23.242;2023-02-19T04:57:13;94376.63;;;10.32;45.43
61128;BME280;47013;42.664;23.242;2023-02-19T04:59:38;94378.13;;;10.40;45.40
61128;BME280;47013;42.664;23.242;2023-02-19T05:02:03;94383.97;;;10.35;45.87
61128;BME280;47013;42.664;23.242;2023-02-19T05:04:29;94383.97;;;10.35;46.49
61128;BME280;47013;42.664;23.242;2023-02-19T05:06:54;94385.94;;;10.31;45.59
61128;BME280;47013;42.664;23.242;2023-02-19T05:09:20;94385.53;;;10.32;45.86
61128;BME280;47013;42.664;23.242;2023-02-19T05:11:45;94385.53;;;10.25;46.07
61128;BME280;47013;42.664;23.242;2023-02-19T05:14:10;94389.03;;;10.29;46.39
61128;BME280;47013;42.664;23.242;2023-02-19T05:16:36;94387.47;;;10.28;46.77
61128;BME280;47013;42.664;23.242;2023-02-19T05:19:01;94390.97;;;10.32;46.63
61128;BME280;47013;42.664;23.242;2023-02-19T05:21:26;94397.16;;;10.33;47.16
61128;BME280;47013;42.664;23.242;2023-02-19T05:23:52;94394.81;;;10.35;47.19
61128;BME280;47013;42.664;23.242;2023-02-19T05:26:20;94404.50;;;10.36;47.02
61128;BME280;47013;42.664;23.242;2023-02-19T05:28:47;94395.59;;;10.28;46.48
61128;BME280;47013;42.664;23.242;2023-02-19T05:31:13;94397.94;;;10.30;46.76
61128;BME280;47013;42.664;23.242;2023-02-19T05:33:39;94402.97;;;10.24;47.12
61128;BME280;47013;42.664;23.242;2023-02-19T05:36:08;94402.97;;;10.24;47.18
61128;BME280;47013;42.664;23.242;2023-02-19T05:38:35;94409.19;;;10.21;47.56
61128;BME280;47013;42.664;23.242;2023-02-19T05:43:32;94402.19;;;10.24;47.29
61128;BME280;47013;42.664;23.242;2023-02-19T05:45:58;94412.66;;;10.25;47.45
61128;BME280;47013;42.664;23.242;2023-02-19T05:48:23;94414.56;;;10.28;47.88
61128;BME280;47013;42.664;23.242;2023-02-19T05:50:48;94404.50;;;10.36;47.58
61128;BME280;47013;42.664;23.242;2023-02-19T05:53:14;94406.81;;;10.38;47.79
61128;BME280;47013;42.664;23.242;2023-02-19T05:55:39;94412.22;;;10.38;47.86
61128;BME280;47013;42.664;23.242;2023-02-19T05:58:04;94409.91;;;10.36;48.24
61128;BME280;47013;42.664;23.242;2023-02-19T06:00:31;94421.50;;;10.47;48.44
61128;BME280;47013;42.664;23.242;2023-02-19T06:02:57;94413.38;;;10.47;48.12
61128;BME280;47013;42.664;23.242;2023-02-19T06:05:23;94410.66;;;10.47;48.17
61128;BME280;47013;42.664;23.242;2023-02-19T06:07:48;94423.41;;;10.57;47.80
61128;BME280;47013;42.664;23.242;2023-02-19T06:10:15;94437.69;;;10.65;47.77
61128;BME280;47013;42.664;23.242;2023-02-19T06:12:40;94441.94;;;10.66;47.90
61128;BME280;47013;42.664;23.242;2023-02-19T06:15:06;94438.84;;;10.68;47.62
61128;BME280;47013;42.664;23.242;2023-02-19T06:17:32;94438.06;;;10.74;46.90
61128;BME280;47013;42.664;23.242;2023-02-19T06:19:59;94432.97;;;10.80;46.69
61128;BME280;47013;42.664;23.242;2023-02-19T06:22:25;94430.28;;;10.80;46.74
61128;BME280;47013;42.664;23.242;2023-02-19T06:24:51;94429.91;;;10.81;46.92
61128;BME280;47013;42.664;23.242;2023-02-19T06:27:16;94441.47;;;10.89;46.43
61128;BME280;47013;42.664;23.242;2023-02-19T06:29:41;94436.06;;;10.89;46.15
61128;BME280;47013;42.664;23.242;2023-02-19T06:32:07;94437.22;;;10.88;46.85
61128;BME280;47013;42.664;23.242;2023-02-19T06:34:32;94429.44;;;10.93;46.30
61128;BME280;47013;42.664;23.242;2023-02-19T06:36:58;94430.22;;;10.98;46.40
61128;BME280;47013;42.664;23.242;2023-02-19T06:39:24;94441.00;;;11.05;46.43
61128;BME280;47013;42.664;23.242;2023-02-19T06:41:49;94427.44;;;11.05;45.85
61128;BME280;47013;42.664;23.242;2023-02-19T06:44:15;94437.53;;;11.04;44.77
61128;BME280;47013;42.664;23.242;2023-02-19T06:46:41;94430.94;;;11.09;44.58
61128;BME280;47013;42.664;23.242;2023-02-19T06:49:06;94437.53;;;11.04;44.37
61128;BME280;47013;42.664;23.242;2023-02-19T06:51:31;94437.09;;;11.13;44.49
61128;BME280;47013;42.664;23.242;2023-02-19T06:53:58;94430.91;;;11.12;44.12
61128;BME280;47013;42.664;23.242;2023-02-19T06:56:26;94430.91;;;11.12;44.10
61128;BME280;47013;42.664;23.242;2023-02-19T06:58:57;94438.25;;;11.15;44.53
61128;BME280;47013;42.664;23.242;2023-02-19T07:01:27;94437.09;;;11.13;44.15
61128;BME280;47013;42.664;23.242;2023-02-19T07:03:53;94447.16;;;11.16;43.92
61128;BME280;47013;42.664;23.242;2023-02-19T07:06:20;94439.00;;;11.16;43.62
61128;BME280;47013;42.664;23.242;2023-02-19T07:08:46;94450.63;;;11.23;44.05
61128;BME280;47013;42.664;23.242;2023-02-19T07:11:11;94442.03;;;11.29;43.83
61128;BME280;47013;42.664;23.242;2023-02-19T07:13:36;94449.78;;;11.30;43.85
61128;BME280;47013;42.664;23.242;2023-02-19T07:16:04;94446.97;;;11.44;44.40
61128;BME280;47013;42.664;23.242;2023-02-19T07:18:32;94445.03;;;11.45;44.32
61128;BME280;47013;42.664;23.242;2023-02-19T07:21:06;94442.31;;;11.45;44.35
61128;BME280;47013;42.664;23.242;2023-02-19T07:23:31;94442.72;;;11.47;44.03
61128;BME280;47013;42.664;23.242;2023-02-19T07:25:57;94426.78;;;11.49;44.03
61128;BME280;47013;42.664;23.242;2023-02-19T07:28:23;94430.63;;;11.55;44.63
61128;BME280;47013;42.664;23.242;2023-02-19T07:30:48;94428.63;;;11.63;43.95
61128;BME280;47013;42.664;23.242;2023-02-19T07:33:13;94420.53;;;11.56;44.16
61128;BME280;47013;42.664;23.242;2023-02-19T07:35:46;94425.41;;;11.82;44.25
61128;BME280;47013;42.664;23.242;2023-02-19T07:38:15;94422.53;;;12.00;43.12
61128;BME280;47013;42.664;23.242;2023-02-19T07:40:41;94427.78;;;12.18;42.78
61128;BME280;47013;42.664;23.242;2023-02-19T07:43:06;94433.06;;;12.35;42.08
61128;BME280;47013;42.664;23.242;2023-02-19T07:45:31;94434.94;;;12.42;42.21
61128;BME280;47013;42.664;23.242;2023-02-19T07:47:57;94428.81;;;12.68;41.31
61128;BME280;47013;42.664;23.242;2023-02-19T07:50:22;94428.25;;;12.84;40.96
61128;BME280;47013;42.664;23.242;2023-02-19T07:52:47;94427.34;;;13.25;69.42
61128;BME280;47013;42.664;23.242;2023-02-19T07:55:13;94424.38;;;14.16;83.72
61128;BME280;47013;42.664;23.242;2023-02-19T07:57:38;94415.75;;;14.85;63.32
61128;BME280;47013;42.664;23.242;2023-02-19T08:00:04;94405.34;;;15.16;40.26
61128;BME280;47013;42.664;23.242;2023-02-19T08:02:29;94411.22;;;14.94;37.97
61128;BME280;47013;42.664;23.242;2023-02-19T08:05:13;94407.59;;;14.81;37.63
61128;BME280;47013;42.664;23.242;2023-02-19T08:07:38;94407.13;;;14.66;37.05
61128;BME280;47013;42.664;23.242;2023-02-19T08:10:04;94415.50;;;14.56;37.86
61128;BME280;47013;42.664;23.242;2023-02-19T08:12:58;94409.38;;;14.05;38.39
61128;BME280;47013;42.664;23.242;2023-02-19T08:15:43;94410.72;;;14.40;37.91
61128;BME280;47013;42.664;23.242;2023-02-19T08:18:09;94409.28;;;14.55;37.34
61128;BME280;47013;42.664;23.242;2023-02-19T08:20:34;94413.53;;;14.56;37.45
61128;BME280;47013;42.664;23.242;2023-02-19T08:23:00;94416.00;;;14.51;37.98
61128;BME280;47013;42.664;23.242;2023-02-19T08:25:26;94411.31;;;14.71;37.33
61128;BME280;47013;42.664;23.242;2023-02-19T08:27:51;94420.34;;;14.88;36.93
61128;BME280;47013;42.664;23.242;2023-02-19T08:30:16;94412.78;;;14.95;36.49
61128;BME280;47013;42.664;23.242;2023-02-19T08:32:42;94412.47;;;15.10;36.35
61128;BME280;47013;42.664;23.242;2023-02-19T08:35:07;94406.53;;;15.15;36.06
61128;BME280;47013;42.664;23.242;2023-02-19T08:37:32;94419.00;;;15.16;35.87
61128;BME280;47013;42.664;23.242;2023-02-19T08:39:58;94401.31;;;15.20;36.27
61128;BME280;47013;42.664;23.242;2023-02-19T08:42:23;94403.34;;;15.00;36.78
61128;BME280;47013;42.664;23.242;2023-02-19T08:44:49;94397.06;;;15.19;35.70
61128;BME280;47013;42.664;23.242;2023-02-19T08:47:14;94409.47;;;15.24;36.30
61128;BME280;47013;42.664;23.242;2023-02-19T08:49:39;94407.06;;;15.26;35.99
61128;BME280;47013;42.664;23.242;2023-02-19T08:52:05;94407.53;;;15.04;36.98
61128;BME280;47013;42.664;23.242;2023-02-19T08:54:30;94401.41;;;14.97;37.65
61128;BME280;47013;42.664;23.242;2023-02-19T08:56:55;94400.19;;;14.62;38.21
61128;BME280;47013;42.664;23.242;2023-02-19T08:59:22;94397.50;;;14.38;37.91
61128;BME280;47013;42.664;23.242;2023-02-19T09:01:47;94396.88;;;14.70;38.03
61128;BME280;47013;42.664;23.242;2023-02-19T09:04:13;94386.88;;;14.44;38.39
61128;BME280;47013;42.664;23.242;2023-02-19T09:06:39;94383.34;;;14.24;39.69
61128;BME280;47013;42.664;23.242;2023-02-19T09:09:04;94385.59;;;14.29;39.30
61128;BME280;47013;42.664;23.242;2023-02-19T09:11:29;94383.31;;;14.67;39.14
61128;BME280;47013;42.664;23.242;2023-02-19T09:13:56;94380.16;;;14.68;38.66
61128;BME280;47013;42.664;23.242;2023-02-19T09:16:21;94370.56;;;14.80;38.39
61128;BME280;47013;42.664;23.242;2023-02-19T09:18:47;94367.44;;;14.62;38.99
61128;BME280;47013;42.664;23.242;2023-02-19T09:21:12;94366.53;;;14.49;38.75
61128;BME280;47013;42.664;23.242;2023-02-19T09:23:38;94372.16;;;14.38;39.69
61128;BME280;47013;42.664;23.242;2023-02-19T09:26:04;94365.50;;;14.62;39.54
61128;BME280;47013;42.664;23.242;2023-02-19T09:28:33;94363.16;;;14.81;39.36
61128;BME280;47013;42.664;23.242;2023-02-19T09:31:06;94370.06;;;15.05;39.13
61128;BME280;47013;42.664;23.242;2023-02-19T09:33:31;94378.03;;;15.16;38.43
61128;BME280;47013;42.664;23.242;2023-02-19T09:35:58;94362.72;;;15.02;37.16
61128;BME280;47013;42.664;23.242;2023-02-19T09:38:25;94377.22;;;14.79;37.36
61128;BME280;47013;42.664;23.242;2023-02-19T09:40:50;94364.00;;;14.78;37.87
61128;BME280;47013;42.664;23.242;2023-02-19T09:43:22;94363.31;;;14.73;38.45
61128;BME280;47013;42.664;23.242;2023-02-19T09:45:59;94365.47;;;14.82;39.36
61128;BME280;47013;42.664;23.242;2023-02-19T09:48:26;94359.00;;;14.92;38.18
61128;BME280;47013;42.664;23.242;2023-02-19T09:50:52;94363.28;;;14.93;37.72
61128;BME280;47013;42.664;23.242;2023-02-19T09:53:24;94351.69;;;14.89;37.48
61128;BME280;47013;42.664;23.242;2023-02-19T09:55:51;94348.84;;;15.13;38.06
61128;BME280;47013;42.664;23.242;2023-02-19T09:58:31;94337.28;;;15.05;37.57
61128;BME280;47013;42.664;23.242;2023-02-19T10:01:01;94333.66;;;14.92;37.57
61128;BME280;47013;42.664;23.242;2023-02-19T10:03:33;94318.06;;;14.92;37.58
61128;BME280;47013;42.664;23.242;2023-02-19T10:06:03;94324.69;;;15.27;37.51
61128;BME280;47013;42.664;23.242;2023-02-19T10:08:31;94323.88;;;15.63;36.65
61128;BME280;47013;42.664;23.242;2023-02-19T10:11:02;94311.88;;;15.73;36.88
61128;BME280;47013;42.664;23.242;2023-02-19T10:13:38;94303.69;;;16.18;35.85
61128;BME280;47013;42.664;23.242;2023-02-19T10:16:06;94292.28;;;16.49;35.50
61128;BME280;47013;42.664;23.242;2023-02-19T10:18:40;94290.34;;;16.62;34.65
61128;BME280;47013;42.664;23.242;2023-02-19T10:21:11;94282.84;;;16.92;33.97
61128;BME280;47013;42.664;23.242;2023-02-19T10:23:39;94289.06;;;17.43;48.93
61128;BME280;47013;42.664;23.242;2023-02-19T10:26:05;94269.50;;;17.66;34.04
61128;BME280;47013;42.664;23.242;2023-02-19T10:28:33;94273.50;;;18.00;32.58
61128;BME280;47013;42.664;23.242;2023-02-19T10:31:04;94270.34;;;17.16;32.88
61128;BME280;47013;42.664;23.242;2023-02-19T10:33:31;94260.09;;;17.55;33.33
61128;BME280;47013;42.664;23.242;2023-02-19T10:36:05;94265.72;;;17.98;32.49
61128;BME280;47013;42.664;23.242;2023-02-19T10:41:17;94245.47;;;18.49;31.49
61128;BME280;47013;42.664;23.242;2023-02-19T10:46:31;94241.53;;;19.12;30.26
61128;BME280;47013;42.664;23.242;2023-02-19T10:48:59;94224.19;;;19.33;29.21
61128;BME280;47013;42.664;23.242;2023-02-19T10:51:43;94227.91;;;19.49;29.37
61128;BME280;47013;42.664;23.242;2023-02-19T10:54:36;94220.88;;;19.48;29.05
61128;BME280;47013;42.664;23.242;2023-02-19T10:59:48;94208.03;;;19.44;28.76
61128;BME280;47013;42.664;23.242;2023-02-19T11:02:19;94205.06;;;19.21;29.14
61128;BME280;47013;42.664;23.242;2023-02-19T11:07:37;94189.13;;;19.56;28.99
61128;BME280;47013;42.664;23.242;2023-02-19T11:10:04;94192.59;;;19.29;29.11
61128;BME280;47013;42.664;23.242;2023-02-19T11:12:32;94195.09;;;19.72;28.62
61128;BME280;47013;42.664;23.242;2023-02-19T11:15:19;94176.16;;;18.98;29.13
61128;BME280;47013;42.664;23.242;2023-02-19T11:17:53;94174.44;;;18.60;29.29
61128;BME280;47013;42.664;23.242;2023-02-19T11:20:19;94170.16;;;18.81;29.89
61128;BME280;47013;42.664;23.242;2023-02-19T11:22:48;94159.13;;;19.39;28.86
61128;BME280;47013;42.664;23.242;2023-02-19T11:28:02;94163.00;;;19.97;27.78
61128;BME280;47013;42.664;23.242;2023-02-19T11:30:41;94146.91;;;20.14;28.10
61128;BME280;47013;42.664;23.242;2023-02-19T11:35:50;94136.94;;;20.35;27.09
61128;BME280;47013;42.664;23.242;2023-02-19T11:38:17;94134.47;;;20.79;26.51
61128;BME280;47013;42.664;23.242;2023-02-19T11:43:19;94131.91;;;20.15;26.14
61128;BME280;47013;42.664;23.242;2023-02-19T11:45:56;94131.31;;;20.71;25.90
61128;BME280;47013;42.664;23.242;2023-02-19T11:48:41;94123.44;;;21.12;25.28
61128;BME280;47013;42.664;23.242;2023-02-19T11:53:47;94113.59;;;20.02;25.89
61128;BME280;47013;42.664;23.242;2023-02-19T11:56:32;94115.16;;;20.55;25.68
61128;BME280;47013;42.664;23.242;2023-02-19T12:04:48;94105.03;;;21.42;23.93
61128;BME280;47013;42.664;23.242;2023-02-19T12:12:51;94098.75;;;21.17;24.37
61128;BME280;47013;42.664;23.242;2023-02-19T12:18:54;94068.09;;;21.78;23.40
61128;BME280;47013;42.664;23.242;2023-02-19T12:40:45;94030.41;;;21.90;23.09
61128;BME280;47013;42.664;23.242;2023-02-19T12:43:22;94030.50;;;21.81;23.52
61128;BME280;47013;42.664;23.242;2023-02-19T12:46:02;94022.09;;;21.45;23.69
61128;BME280;47013;42.664;23.242;2023-02-19T12:48:41;94021.78;;;21.05;24.19
61128;BME280;47013;42.664;23.242;2023-02-19T12:51:21;94009.91;;;20.75;24.38
61128;BME280;47013;42.664;23.242;2023-02-19T12:54:00;94015.25;;;20.03;25.13
61128;BME280;47013;42.664;23.242;2023-02-19T12:56:33;94007.41;;;19.78;25.52
61128;BME280;47013;42.664;23.242;2023-02-19T13:01:38;94002.13;;;19.56;26.07
61128;BME280;47013;42.664;23.242;2023-02-19T13:04:21;93997.22;;;19.41;26.35
61128;BME280;47013;42.664;23.242;2023-02-19T13:07:05;93994.50;;;18.77;26.88
61128;BME280;47013;42.664;23.242;2023-02-19T13:09:37;93987.00;;;18.69;27.02
61128;BME280;47013;42.664;23.242;2023-02-19T13:12:08;93987.50;;;18.27;27.09
61128;BME280;47013;42.664;23.242;2023-02-19T13:14:40;93986.09;;;18.22;27.98
61128;BME280;47013;42.664;23.242;2023-02-19T13:19:47;93967.91;;;18.07;28.55
61128;BME280;47013;42.664;23.242;2023-02-19T13:22:21;93957.41;;;18.05;28.45
61128;BME280;47013;42.664;23.242;2023-02-19T13:25:08;93963.66;;;18.06;28.86
61128;BME280;47013;42.664;23.242;2023-02-19T13:30:29;93943.28;;;17.76;28.58
61128;BME280;47013;42.664;23.242;2023-02-19T13:36:03;93938.91;;;17.87;28.91
61128;BME280;47013;42.664;23.242;2023-02-19T13:38:42;93946.16;;;17.72;29.25
61128;BME280;47013;42.664;23.242;2023-02-19T13:41:27;93941.06;;;17.61;29.23
61128;BME280;47013;42.664;23.242;2023-02-19T13:43:56;93938.47;;;17.58;29.16
61128;BME280;47013;42.664;23.242;2023-02-19T13:46:23;93938.97;;;17.44;29.20
61128;BME280;47013;42.664;23.242;2023-02-19T13:49:32;93938.41;;;17.49;29.45
61128;BME280;47013;42.664;23.242;2023-02-19T13:52:31;93937.69;;;17.26;29.82
61128;BME280;47013;42.664;23.242;2023-02-19T13:54:48;93930.56;;;17.07;29.94
61128;BME280;47013;42.664;23.242;2023-02-19T13:59:42;93928.78;;;16.91;30.13
61128;BME280;47013;42.664;23.242;2023-02-19T14:02:12;93920.75;;;16.97;30.39
61128;BME280;47013;42.664;23.242;2023-02-19T14:04:52;93918.56;;;16.92;30.29
61128;BME280;47013;42.664;23.242;2023-02-19T14:07:21;93914.75;;;16.89;30.31
61128;BME280;47013;42.664;23.242;2023-02-19T14:09:57;93913.75;;;16.96;30.56
61128;BME280;47013;42.664;23.242;2023-02-19T14:12:32;93915.13;;;16.78;30.06
61128;BME280;47013;42.664;23.242;2023-02-19T14:17:49;93906.38;;;16.84;29.87
61128;BME280;47013;42.664;23.242;2023-02-19T14:25:27;93905.22;;;16.94;30.66
61128;BME280;47013;42.664;23.242;2023-02-19T14:33:22;93886.06;;;16.94;29.67
61128;BME280;47013;42.664;23.242;2023-02-19T14:35:53;93889.72;;;17.00;29.79
61128;BME280;47013;42.664;23.242;2023-02-19T14:38:38;93875.59;;;17.01;30.26
61128;BME280;47013;42.664;23.242;2023-02-19T14:41:11;93883.94;;;16.98;30.38
61128;BME280;47013;42.664;23.242;2023-02-19T14:43:37;93874.38;;;17.02;30.75
61128;BME280;47013;42.664;23.242;2023-02-19T14:46:13;93865.84;;;17.00;30.24
61128;BME280;47013;42.664;23.242;2023-02-19T14:48:47;93875.91;;;17.03;30.69
61128;BME280;47013;42.664;23.242;2023-02-19T14:51:26;93871.59;;;16.93;30.46
61128;BME280;47013;42.664;23.242;2023-02-19T14:53:54;93868.72;;;16.97;30.63
61128;BME280;47013;42.664;23.242;2023-02-19T14:56:26;93866.28;;;16.99;30.72